createdAt,value
2022-10-02T00:01:48.283Z,12.31
2022-10-02T00:04:23.019Z,12.38
2022-10-02T00:06:55.885Z,12.35
2022-10-02T00:09:32.463Z,12.36
2022-10-02T00:12:06.428Z,12.32
2022-10-02T00:14:41.238Z,12.29
2022-10-02T00:17:19.024Z,12.34
2022-10-02T00:19:48.825Z,12.25
2022-10-02T00:22:35.465Z,12.33
2022-10-02T00:25:13.263Z,12.34
2022-10-02T00:27:59.899Z,12.31
2022-10-02T00:30:36.305Z,12.33
2022-10-02T00:33:15.828Z,12.29
2022-10-02T00:36:00.139Z,12.21
2022-10-02T00:38:49.195Z,12.22
2022-10-02T00:41:55.672Z,12.28
2022-10-02T00:44:45.871Z,12.29
2022-10-02T00:47:25.696Z,12.23
2022-10-02T00:50:06.206Z,12.12
2022-10-02T00:52:52.681Z,12.22
2022-10-02T00:55:40.908Z,12.13
2022-10-02T00:58:34.484Z,12.12
2022-10-02T01:01:14.656Z,12.16
2022-10-02T01:03:46.017Z,12.16
2022-10-02T01:06:16.085Z,12.18
2022-10-02T01:08:46.370Z,12.13
2022-10-02T01:11:16.209Z,12.12
2022-10-02T01:13:46.580Z,12.12
2022-10-02T01:16:19.986Z,12.22
2022-10-02T01:18:49.998Z,12.22
2022-10-02T01:21:25.547Z,12.14
2022-10-02T01:24:02.041Z,12.17
2022-10-02T01:26:35.096Z,12.19
2022-10-02T01:29:05.122Z,12.18
2022-10-02T01:31:35.925Z,12.13
2022-10-02T01:34:06.404Z,12.20
2022-10-02T01:36:37.140Z,12.15
2022-10-02T01:39:07.803Z,12.15
2022-10-02T01:41:45.709Z,12.13
2022-10-02T01:44:16.863Z,12.10
2022-10-02T01:46:56.614Z,12.09
2022-10-02T01:49:49.242Z,12.13
2022-10-02T01:52:37.381Z,12.13
2022-10-02T01:55:25.250Z,12.15
2022-10-02T01:58:12.747Z,12.14
2022-10-02T02:00:54.837Z,12.10
2022-10-02T02:03:31.104Z,12.14
2022-10-02T02:06:12.917Z,12.15
2022-10-02T02:08:50.380Z,12.13
2022-10-02T02:11:23.008Z,12.14
2022-10-02T02:14:00.687Z,12.15
2022-10-02T02:16:35.754Z,12.18
2022-10-02T02:19:12.365Z,12.18
2022-10-02T02:21:45.150Z,12.15
2022-10-02T02:24:18.835Z,12.13
2022-10-02T02:26:49.553Z,12.15
2022-10-02T02:29:25.338Z,12.18
2022-10-02T02:31:57.689Z,12.21
2022-10-02T02:34:34.210Z,12.21
2022-10-02T02:37:08.972Z,12.20
2022-10-02T02:39:46.322Z,12.19
2022-10-02T02:42:20.829Z,12.18
2022-10-02T02:44:59.689Z,12.21
2022-10-02T02:47:32.602Z,12.22
2022-10-02T02:50:06.710Z,12.19
2022-10-02T02:52:44.507Z,12.23
2022-10-02T02:55:20.258Z,12.15
2022-10-02T02:57:56.489Z,12.22
2022-10-02T03:00:29.552Z,12.27
2022-10-02T03:02:59.346Z,12.28
2022-10-02T03:05:31.097Z,12.25
2022-10-02T03:08:04.707Z,12.29
2022-10-02T03:10:49.083Z,12.29
2022-10-02T03:13:31.852Z,12.28
2022-10-02T03:16:20.963Z,12.26
2022-10-02T03:19:04.625Z,12.25
2022-10-02T03:21:42.898Z,12.26
2022-10-02T03:24:22.505Z,12.33
2022-10-02T03:26:58.426Z,12.32
2022-10-02T03:29:33.288Z,12.32
2022-10-02T03:32:08.075Z,12.30
2022-10-02T03:34:39.411Z,12.24
2022-10-02T03:37:10.436Z,12.25
2022-10-02T03:39:43.378Z,12.31
2022-10-02T03:42:15.010Z,12.25
2022-10-02T03:44:45.961Z,12.35
2022-10-02T03:47:18.751Z,12.34
2022-10-02T03:49:49.305Z,12.33
2022-10-02T03:52:21.775Z,12.33
2022-10-02T03:54:55.801Z,12.36
2022-10-02T03:57:27.632Z,12.32
2022-10-02T04:00:05.376Z,12.23
2022-10-02T04:02:42.968Z,12.26
2022-10-02T04:05:22.869Z,12.24
2022-10-02T04:07:55.843Z,12.30
2022-10-02T04:10:34.187Z,12.29
2022-10-02T04:13:12.606Z,12.29
2022-10-02T04:15:56.939Z,12.29
2022-10-02T04:18:35.499Z,12.32
2022-10-02T04:21:12.664Z,12.32
2022-10-02T04:23:48.174Z,12.38
2022-10-02T04:26:24.473Z,12.39
2022-10-02T04:28:58.565Z,12.42
2022-10-02T04:31:28.711Z,12.47
2022-10-02T04:34:06.004Z,12.41
2022-10-02T04:36:46.654Z,12.38
2022-10-02T04:39:55.112Z,12.31
2022-10-02T04:42:37.505Z,12.26
2022-10-02T04:45:29.458Z,12.28
2022-10-02T04:48:40.397Z,12.28
2022-10-02T04:51:24.305Z,12.26
2022-10-02T04:54:11.867Z,12.34
2022-10-02T04:57:05.237Z,12.32
2022-10-02T04:59:48.050Z,12.31
2022-10-02T05:02:39.888Z,12.29
2022-10-02T05:05:22.743Z,12.21
2022-10-02T05:08:20.083Z,12.21
2022-10-02T05:11:02.135Z,12.27
2022-10-02T05:13:49.744Z,12.21
2022-10-02T05:16:35.019Z,12.25
2022-10-02T05:19:28.864Z,12.24
2022-10-02T05:22:17.977Z,12.20
2022-10-02T05:25:02.513Z,12.20
2022-10-02T05:28:05.118Z,12.23
2022-10-02T05:30:48.051Z,12.18
2022-10-02T05:33:48.066Z,12.14
2022-10-02T05:36:33.515Z,12.02
2022-10-02T05:39:08.373Z,12.03
2022-10-02T05:41:51.981Z,12.04
2022-10-02T05:44:25.702Z,12.00
2022-10-02T05:47:03.497Z,12.00
2022-10-02T05:49:38.690Z,12.10
2022-10-02T05:52:15.735Z,12.09
2022-10-02T05:54:52.904Z,12.12
2022-10-02T05:57:33.484Z,12.08
2022-10-02T06:00:11.240Z,12.14
2022-10-02T06:02:53.599Z,12.04
2022-10-02T06:05:27.190Z,11.97
2022-10-02T06:08:02.206Z,12.10
2022-10-02T06:10:35.224Z,12.08
2022-10-02T06:13:14.006Z,12.14
2022-10-02T06:15:53.905Z,12.10
2022-10-02T06:18:26.880Z,12.05
2022-10-02T06:21:02.360Z,12.08
2022-10-02T06:23:38.637Z,12.19
2022-10-02T06:26:14.377Z,12.11
2022-10-02T06:28:54.531Z,12.14
2022-10-02T06:31:29.331Z,12.11
2022-10-02T06:34:00.031Z,11.99
2022-10-02T06:36:50.359Z,12.08
2022-10-02T06:39:46.193Z,12.21
2022-10-02T06:42:26.745Z,12.17
2022-10-02T06:45:07.067Z,12.14
2022-10-02T06:47:54.327Z,12.19
2022-10-02T06:50:34.206Z,12.12
2022-10-02T06:53:14.667Z,12.20
2022-10-02T06:55:51.784Z,12.11
2022-10-02T06:58:50.387Z,12.13
2022-10-02T07:01:33.257Z,12.08
2022-10-02T07:04:27.069Z,11.96
2022-10-02T07:07:13.114Z,11.99
2022-10-02T07:10:01.212Z,11.98
2022-10-02T07:12:49.636Z,12.08
2022-10-02T07:15:38.858Z,12.14
2022-10-02T07:18:22.163Z,12.12
2022-10-02T07:21:01.998Z,12.15
2022-10-02T07:23:50.462Z,12.24
2022-10-02T07:26:32.777Z,12.24
2022-10-02T07:29:15.428Z,12.20
2022-10-02T07:31:56.089Z,12.16
2022-10-02T07:34:40.996Z,12.17
2022-10-02T07:37:25.088Z,12.11
2022-10-02T07:40:11.010Z,12.08
2022-10-02T07:42:58.509Z,12.19
2022-10-02T07:45:37.148Z,12.24
2022-10-02T07:48:44.899Z,12.18
2022-10-02T07:51:41.450Z,12.24
2022-10-02T07:54:24.848Z,12.28
2022-10-02T07:56:57.139Z,12.34
2022-10-02T07:59:27.414Z,12.23
2022-10-02T08:01:57.784Z,12.28
2022-10-02T08:04:36.873Z,12.28
2022-10-02T08:07:10.040Z,12.26
2022-10-02T08:09:44.309Z,12.32
2022-10-02T08:12:26.359Z,12.24
2022-10-02T08:14:57.999Z,12.31
2022-10-02T08:17:33.660Z,12.30
2022-10-02T08:20:10.209Z,12.15
2022-10-02T08:22:46.004Z,12.18
2022-10-02T08:25:24.590Z,12.17
2022-10-02T08:28:01.296Z,12.15
2022-10-02T08:30:31.187Z,12.23
2022-10-02T08:33:01.720Z,12.26
2022-10-02T08:35:44.381Z,12.45
2022-10-02T08:38:35.576Z,12.48
2022-10-02T08:41:32.938Z,12.42
2022-10-02T08:44:36.133Z,12.42
2022-10-02T08:47:27.871Z,12.50
2022-10-02T08:50:23.532Z,12.48
2022-10-02T08:53:29.930Z,12.52
2022-10-02T08:56:26.624Z,12.56
2022-10-02T08:59:28.815Z,12.54
2022-10-02T09:02:35.477Z,12.54
2022-10-02T09:05:39.807Z,12.64
2022-10-02T09:08:49.332Z,12.67
2022-10-02T09:11:47.876Z,12.72
2022-10-02T09:14:48.490Z,12.74
2022-10-02T09:17:47.314Z,12.91
2022-10-02T09:20:49.724Z,12.98
2022-10-02T09:24:00.548Z,13.09
2022-10-02T09:26:43.179Z,13.11
2022-10-02T09:29:45.326Z,13.00
2022-10-02T09:32:42.591Z,13.03
2022-10-02T09:35:49.687Z,12.97
2022-10-02T09:39:04.038Z,12.82
2022-10-02T09:42:16.907Z,12.78
2022-10-02T09:45:14.160Z,12.81
2022-10-02T09:48:10.293Z,12.84
2022-10-02T09:51:33.282Z,12.81
2022-10-02T09:54:41.656Z,12.82
2022-10-02T09:57:45.920Z,12.77
2022-10-02T10:00:22.654Z,12.66
2022-10-02T10:03:28.127Z,12.65
2022-10-02T10:06:21.298Z,12.61
2022-10-02T10:09:22.805Z,12.57
2022-10-02T10:12:12.367Z,12.56
2022-10-02T10:15:11.173Z,12.74
2022-10-02T10:18:13.493Z,12.67
2022-10-02T10:21:10.474Z,12.69
2022-10-02T10:24:00.869Z,12.78
2022-10-02T10:26:51.093Z,12.76
2022-10-02T10:29:49.299Z,12.90
2022-10-02T10:32:53.208Z,13.01
2022-10-02T10:35:47.406Z,13.15
2022-10-02T10:38:38.553Z,13.25
2022-10-02T10:41:27.037Z,13.34
2022-10-02T10:44:22.991Z,13.35
2022-10-02T10:47:09.332Z,13.25
2022-10-02T10:50:07.641Z,13.11
2022-10-02T10:53:10.550Z,13.01
2022-10-02T10:55:59.680Z,12.90
2022-10-02T10:58:48.034Z,13.00
2022-10-02T11:01:22.559Z,13.05
2022-10-02T11:04:37.346Z,13.03
2022-10-02T11:07:25.432Z,13.05
2022-10-02T11:10:15.780Z,13.05
2022-10-02T11:13:07.648Z,12.86
2022-10-02T11:16:07.777Z,12.83
2022-10-02T11:18:53.553Z,12.76
2022-10-02T11:21:42.377Z,12.80
2022-10-02T11:24:36.773Z,12.75
2022-10-02T11:27:44.454Z,12.65
2022-10-02T11:30:26.511Z,12.66
2022-10-02T11:33:40.102Z,12.71
2022-10-02T11:36:41.842Z,12.67
2022-10-02T11:39:38.952Z,12.84
2022-10-02T11:42:33.867Z,12.89
2022-10-02T11:45:24.117Z,12.96
2022-10-02T11:48:09.470Z,13.03
2022-10-02T11:50:58.733Z,13.04
2022-10-02T11:53:45.570Z,13.02
2022-10-02T11:56:34.176Z,12.97
2022-10-02T11:59:22.530Z,12.97
2022-10-02T12:01:59.430Z,12.94
2022-10-02T12:04:41.023Z,13.00
2022-10-02T12:07:23.463Z,13.12
2022-10-02T12:10:18.347Z,13.23
2022-10-02T12:13:01.910Z,13.11
2022-10-02T12:15:42.757Z,13.08
2022-10-02T12:18:45.611Z,13.03
2022-10-02T12:21:43.543Z,13.06
2022-10-02T12:24:34.505Z,13.07
2022-10-02T12:27:13.566Z,13.10
2022-10-02T12:30:14.226Z,13.10
2022-10-02T12:32:56.557Z,13.10
2022-10-02T12:35:51.842Z,13.11
2022-10-02T12:38:36.387Z,13.07
2022-10-02T12:41:13.443Z,13.00
2022-10-02T12:44:17.186Z,12.91
2022-10-02T12:47:14.058Z,12.96
2022-10-02T12:49:53.371Z,12.86
2022-10-02T12:53:06.977Z,12.87
2022-10-02T12:56:15.308Z,12.80
2022-10-02T12:58:59.024Z,12.66
2022-10-02T13:02:06.389Z,12.72
2022-10-02T13:05:13.716Z,12.67
2022-10-02T13:08:12.101Z,12.74
2022-10-02T13:10:50.206Z,12.85
2022-10-02T13:13:44.257Z,12.95
2022-10-02T13:16:23.356Z,12.92
2022-10-02T13:19:07.116Z,12.92
2022-10-02T13:21:51.225Z,12.91
2022-10-02T13:24:36.301Z,12.89
2022-10-02T13:27:21.393Z,12.90
2022-10-02T13:30:07.116Z,12.85
2022-10-02T13:32:48.587Z,12.82
2022-10-02T13:35:32.422Z,12.79
2022-10-02T13:38:17.839Z,12.89
2022-10-02T13:40:58.078Z,12.88
2022-10-02T13:43:42.671Z,12.98
2022-10-02T13:46:24.161Z,12.96
2022-10-02T13:49:07.815Z,12.96
2022-10-02T13:51:48.593Z,12.96
2022-10-02T13:54:41.542Z,12.90
2022-10-02T13:57:24.010Z,12.92
2022-10-02T14:00:05.671Z,12.96
2022-10-02T14:03:05.055Z,12.99
2022-10-02T14:05:43.465Z,12.96
2022-10-02T14:08:37.146Z,13.02
2022-10-02T14:11:26.332Z,13.06
2022-10-02T14:14:07.781Z,12.98
2022-10-02T14:16:51.070Z,12.91
2022-10-02T14:19:56.160Z,12.86
2022-10-02T14:22:38.530Z,12.79
2022-10-02T14:25:26.585Z,12.73
2022-10-02T14:28:30.438Z,12.80
2022-10-02T14:31:16.730Z,12.83
2022-10-02T14:34:13.753Z,12.88
2022-10-02T14:36:51.383Z,12.86
2022-10-02T14:39:34.497Z,12.92
2022-10-02T14:42:21.763Z,12.91
2022-10-02T14:45:23.094Z,12.85
2022-10-02T14:48:19.482Z,12.79
2022-10-02T14:51:06.151Z,12.69
2022-10-02T14:54:00.381Z,12.79
2022-10-02T14:56:51.240Z,12.81
2022-10-02T14:59:38.240Z,12.86
2022-10-02T15:02:35.488Z,12.80
2022-10-02T15:05:16.483Z,12.78
2022-10-02T15:07:47.257Z,12.73
2022-10-02T15:10:21.896Z,12.68
2022-10-02T15:13:01.975Z,12.68
2022-10-02T15:15:40.383Z,12.61
2022-10-02T15:18:32.469Z,12.61
2022-10-02T15:21:09.151Z,12.60
2022-10-02T15:23:45.174Z,12.67
2022-10-02T15:26:35.645Z,12.70
2022-10-02T15:29:17.400Z,12.65
2022-10-02T15:32:13.733Z,12.62
2022-10-02T15:34:52.205Z,12.60
2022-10-02T15:37:29.292Z,12.70
2022-10-02T15:40:28.720Z,12.65
2022-10-02T15:42:59.954Z,12.58
2022-10-02T15:45:55.290Z,12.66
2022-10-02T15:48:43.580Z,12.68
2022-10-02T15:51:31.542Z,12.70
2022-10-02T15:54:10.667Z,12.73
2022-10-02T15:57:01.534Z,12.73
2022-10-02T16:00:03.721Z,12.68
2022-10-02T16:02:47.631Z,12.66
2022-10-02T16:05:29.578Z,12.75
2022-10-02T16:08:26.246Z,12.68
2022-10-02T16:11:26.073Z,12.64
2022-10-02T16:14:04.053Z,12.68
2022-10-02T16:17:08.999Z,12.74
2022-10-02T16:20:06.771Z,12.70
2022-10-02T16:22:52.661Z,12.63
2022-10-02T16:25:47.976Z,12.57
2022-10-02T16:28:31.627Z,12.60
2022-10-02T16:31:17.647Z,12.68
2022-10-02T16:34:01.226Z,12.58
2022-10-02T16:36:40.541Z,12.49
2022-10-02T16:39:36.132Z,12.56
2022-10-02T16:42:23.408Z,12.53
2022-10-02T16:45:25.924Z,12.54
2022-10-02T16:48:03.852Z,12.48
2022-10-02T16:50:50.300Z,12.47
2022-10-02T16:53:28.914Z,12.42
2022-10-02T16:56:10.313Z,12.43
2022-10-02T16:58:52.034Z,12.46
2022-10-02T17:01:30.846Z,12.44
2022-10-02T17:04:22.734Z,12.50
2022-10-02T17:06:58.841Z,12.41
2022-10-02T17:09:36.893Z,12.46
2022-10-02T17:12:15.968Z,12.45
2022-10-02T17:14:58.037Z,12.39
2022-10-02T17:17:36.494Z,12.43
2022-10-02T17:20:21.783Z,12.44
2022-10-02T17:23:00.232Z,12.41
2022-10-02T17:25:37.147Z,12.45
2022-10-02T17:28:13.302Z,12.36
2022-10-02T17:31:14.972Z,12.33
2022-10-02T17:33:48.619Z,12.42
2022-10-02T17:36:27.357Z,12.35
2022-10-02T17:39:11.769Z,12.47
2022-10-02T17:41:53.606Z,12.44
2022-10-02T17:44:36.164Z,12.44
2022-10-02T17:47:50.784Z,12.45
2022-10-02T17:50:43.826Z,12.49
2022-10-02T17:53:39.730Z,12.48
2022-10-02T17:56:32.664Z,12.49
2022-10-02T17:59:28.459Z,12.50
2022-10-02T18:02:10.745Z,12.46
2022-10-02T18:04:54.152Z,12.50
2022-10-02T18:07:42.823Z,12.38
2022-10-02T18:10:23.786Z,12.42
2022-10-02T18:13:22.270Z,12.48
2022-10-02T18:16:22.412Z,12.46
2022-10-02T18:19:27.310Z,12.38
2022-10-02T18:22:25.275Z,12.48
2022-10-02T18:25:23.088Z,12.52
2022-10-02T18:28:11.672Z,12.54
2022-10-02T18:30:50.278Z,12.47
2022-10-02T18:33:42.463Z,12.40
2022-10-02T18:36:32.954Z,12.25
2022-10-02T18:39:09.132Z,12.12
2022-10-02T18:41:58.008Z,12.08
2022-10-02T18:44:45.310Z,12.10
2022-10-02T18:47:29.306Z,12.11
2022-10-02T18:50:24.598Z,12.13
2022-10-02T18:53:13.488Z,12.23
2022-10-02T18:55:59.777Z,12.23
2022-10-02T18:58:46.599Z,12.25
2022-10-02T19:01:31.739Z,12.22
2022-10-02T19:04:19.482Z,12.33
2022-10-02T19:06:54.954Z,12.28
2022-10-02T19:09:28.887Z,12.26
2022-10-02T19:12:01.756Z,12.24
2022-10-02T19:14:41.358Z,12.32
2022-10-02T19:17:18.643Z,12.23
2022-10-02T19:19:48.493Z,12.16
2022-10-02T19:22:22.634Z,12.20
2022-10-02T19:24:56.534Z,12.15
2022-10-02T19:27:31.266Z,12.12
2022-10-02T19:30:06.047Z,12.13
2022-10-02T19:32:40.617Z,12.02
2022-10-02T19:35:18.534Z,12.11
2022-10-02T19:37:51.925Z,12.15
2022-10-02T19:40:24.341Z,12.13
2022-10-02T19:43:02.168Z,12.14
2022-10-02T19:45:36.527Z,12.17
2022-10-02T19:48:09.133Z,12.14
2022-10-02T19:50:44.906Z,12.16
2022-10-02T19:53:25.754Z,12.12
2022-10-02T19:55:58.979Z,12.10
2022-10-02T19:58:35.168Z,12.14
2022-10-02T20:01:10.005Z,12.10
2022-10-02T20:03:40.407Z,12.13
2022-10-02T20:06:15.275Z,12.17
2022-10-02T20:08:48.316Z,12.22
2022-10-02T20:11:22.816Z,12.18
2022-10-02T20:13:57.377Z,12.13
2022-10-02T20:16:42.343Z,12.12
2022-10-02T20:19:19.412Z,12.13
2022-10-02T20:21:53.190Z,12.08
2022-10-02T20:24:30.137Z,12.08
2022-10-02T20:27:06.785Z,12.05
2022-10-02T20:29:46.568Z,12.08
2022-10-02T20:32:24.960Z,12.05
2022-10-02T20:35:00.333Z,12.04
2022-10-02T20:37:35.149Z,12.07
2022-10-02T20:40:15.990Z,12.10
2022-10-02T20:42:54.165Z,12.13
2022-10-02T20:45:31.229Z,12.14
2022-10-02T20:49:03.107Z,12.16
2022-10-02T20:51:53.009Z,12.14
2022-10-02T20:54:45.799Z,12.14
2022-10-02T20:58:02.036Z,12.05
2022-10-02T21:00:45.978Z,12.00
2022-10-02T21:03:28.759Z,11.93
2022-10-02T21:06:36.273Z,11.87
2022-10-02T21:09:44.986Z,11.80
2022-10-02T21:12:46.843Z,11.87
2022-10-02T21:15:41.238Z,11.93
2022-10-02T21:18:32.915Z,11.90
2022-10-02T21:21:33.963Z,11.93
2022-10-02T21:25:03.533Z,11.88
2022-10-02T21:28:14.161Z,11.81
2022-10-02T21:30:54.899Z,11.82
2022-10-02T21:33:29.864Z,11.77
2022-10-02T21:36:10.450Z,11.80
2022-10-02T21:39:08.914Z,11.88
2022-10-02T21:42:17.772Z,11.96
2022-10-02T21:45:15.174Z,11.91
2022-10-02T21:48:29.735Z,11.87
2022-10-02T21:51:35.679Z,11.93
2022-10-02T21:54:44.742Z,11.93
2022-10-02T21:57:58.644Z,11.89
2022-10-02T22:00:31.454Z,11.88
2022-10-02T22:03:37.471Z,11.91
2022-10-02T22:06:28.184Z,11.85
2022-10-02T22:09:15.676Z,11.85
2022-10-02T22:11:58.596Z,11.83
2022-10-02T22:14:37.205Z,11.93
2022-10-02T22:17:18.767Z,11.95
2022-10-02T22:20:00.866Z,11.89
2022-10-02T22:22:45.296Z,11.90
2022-10-02T22:25:27.749Z,11.92
2022-10-02T22:28:19.359Z,11.89
2022-10-02T22:31:12.081Z,11.85
2022-10-02T22:33:54.358Z,11.82
2022-10-02T22:37:01.607Z,11.85
2022-10-02T22:39:34.054Z,11.88
2022-10-02T22:42:13.163Z,11.86
2022-10-02T22:44:48.732Z,11.91
2022-10-02T22:47:29.886Z,11.96
2022-10-02T22:50:05.090Z,11.87
2022-10-02T22:52:47.520Z,11.75
2022-10-02T22:55:24.595Z,11.79
2022-10-02T22:58:00.741Z,11.83
2022-10-02T23:00:35.690Z,11.74
2022-10-02T23:03:15.249Z,11.76
2022-10-02T23:05:49.465Z,11.77
2022-10-02T23:08:26.145Z,11.68
2022-10-02T23:11:03.094Z,11.73
2022-10-02T23:13:37.514Z,11.64
2022-10-02T23:16:12.914Z,11.63
2022-10-02T23:18:48.959Z,11.67
2022-10-02T23:21:31.479Z,11.68
2022-10-02T23:24:11.232Z,11.69
2022-10-02T23:26:48.273Z,11.69
2022-10-02T23:29:28.811Z,11.70
2022-10-02T23:32:03.581Z,11.67
2022-10-02T23:34:42.624Z,11.63
2022-10-02T23:37:20.767Z,11.59
2022-10-02T23:39:57.169Z,11.64
2022-10-02T23:42:34.941Z,11.65
2022-10-02T23:45:10.525Z,11.65
2022-10-02T23:47:54.890Z,11.50
2022-10-02T23:50:33.499Z,11.46
2022-10-02T23:53:27.522Z,11.41
2022-10-02T23:56:15.153Z,11.38
2022-10-02T23:59:15.385Z,11.37
